Overview Statistics Trail Chart Weather Telemetry Raw packets
 

This is the latest recevied weather packets stored in our database for station/object KD7DVD-1. If no packets are shown the sender has not sent any weather packets the latest 10 day(s).

<< 9 10 11 12 13 14 15 >>
Time Temp. Humidity Pressure Rain* Wind** Luminosity Snow
1788206416 20.56° C 62% 1011.1 hPa 0 mm - - -
1788204616 20° C 67% 1011.5 hPa 0 mm - - -
1788202816 18.89° C 70% 1012 hPa 0 mm - - -
1788201016 18.89° C 71% 1012.2 hPa 0 mm - - -
1788199215 18.33° C 73% 1012.6 hPa 0 mm - - -
1788197416 17.22° C 76% 1012.9 hPa 0 mm - - -
1788195616 16.11° C 78% 1013 hPa 0 mm - - -
1788193817 16.11° C 80% 1013.2 hPa 0 mm - - -
1788192017 15° C 83% 1013.4 hPa 0 mm - - -
1788190217 15° C 84% 1013.8 hPa 0 mm - - -
1788188415 14.44° C 86% 1013.8 hPa 0 mm - - -
1788186617 14.44° C 88% 1013.6 hPa 0 mm - - -
1788184817 13.89° C 90% 1013.7 hPa 0 mm - - -
1788183017 13.33° C 90% 1013.5 hPa 0 mm - - -
1788181218 13.33° C 90% 1013.7 hPa 0 mm - - -
1788179417 13.33° C 89% 1013.9 hPa 0 mm - - -
1788177617 13.89° C 89% 1014.1 hPa 0 mm - - -
1788175817 13.89° C 88% 1014.5 hPa 0 mm - - -
1788174017 14.44° C 87% 1014.7 hPa 0 mm - - -
1788172217 14.44° C 85% 1014.8 hPa 0 mm - - -
1788170417 14.44° C 83% 1015 hPa 0 mm - - -
1788168616 15.56° C 81% 1015.5 hPa 0 mm - - -
1788166816 15.56° C 79% 1015.6 hPa 0 mm - - -
1788165016 15° C 80% 1015.6 hPa 0 mm - - -
1788163216 14.44° C 82% 1016 hPa 0 mm - - -

* Rain latest hour (hover to see other rain measurements)
** Current wind speed in m/s (hover to see current wind gust speed)